createdAt,value
2022-12-11T00:00:55.612Z,99396.78
2022-12-11T00:03:40.230Z,99397.77
2022-12-11T00:06:10.143Z,99390.89
2022-12-11T00:08:39.038Z,99383.81
2022-12-11T00:11:13.048Z,99383.23
2022-12-11T00:13:41.230Z,99384.14
2022-12-11T00:16:09.615Z,99386.09
2022-12-11T00:18:38.287Z,99387.80
2022-12-11T00:21:07.781Z,99390.00
2022-12-11T00:23:35.957Z,99390.46
2022-12-11T00:26:09.498Z,99384.52
2022-12-11T00:28:37.144Z,99389.11
2022-12-11T00:31:06.973Z,99386.28
2022-12-11T00:33:34.771Z,99375.09
2022-12-11T00:36:02.654Z,99383.38
2022-12-11T00:38:30.334Z,99387.02
2022-12-11T00:40:59.223Z,99385.45
2022-12-11T00:43:26.863Z,99378.86
2022-12-11T00:45:54.564Z,99378.48
2022-12-11T00:48:22.342Z,99375.36
2022-12-11T00:50:49.970Z,99376.47
2022-12-11T00:53:17.583Z,99375.63
2022-12-11T00:55:45.208Z,99378.42
2022-12-11T00:58:13.536Z,99371.77
2022-12-11T01:00:41.913Z,99367.27
2022-12-11T01:03:12.974Z,99366.54
2022-12-11T01:05:41.231Z,99366.80
2022-12-11T01:08:09.031Z,99366.53
2022-12-11T01:10:36.903Z,99357.83
2022-12-11T01:13:06.653Z,99350.63
2022-12-11T01:15:41.551Z,99353.82
2022-12-11T01:18:12.024Z,99358.61
2022-12-11T01:20:41.329Z,99363.46
2022-12-11T01:23:12.391Z,99368.89
2022-12-11T01:25:40.675Z,99373.23
2022-12-11T01:28:09.211Z,99375.72
2022-12-11T01:30:37.443Z,99379.50
2022-12-11T01:33:05.214Z,99377.35
2022-12-11T01:35:32.813Z,99383.12
2022-12-11T01:38:00.491Z,99384.05
2022-12-11T01:40:28.287Z,99381.19
2022-12-11T01:42:56.118Z,99380.44
2022-12-11T01:45:36.499Z,99371.78
2022-12-11T01:48:25.025Z,99374.14
2022-12-11T01:51:02.820Z,99371.45
2022-12-11T01:53:37.067Z,99364.64
2022-12-11T01:56:08.004Z,99360.86
2022-12-11T01:58:45.626Z,99355.84
2022-12-11T02:01:26.076Z,99349.73
2022-12-11T02:03:55.648Z,99351.51
2022-12-11T02:06:43.826Z,99343.53
2022-12-11T02:09:22.417Z,99340.23
2022-12-11T02:12:12.713Z,99336.99
2022-12-11T02:15:13.307Z,99338.38
2022-12-11T02:17:48.703Z,99342.86
2022-12-11T02:20:24.460Z,99333.23
2022-12-11T02:23:02.450Z,99338.65
2022-12-11T02:25:46.039Z,99338.52
2022-12-11T02:28:31.906Z,99331.08
2022-12-11T02:31:13.398Z,99326.27
2022-12-11T02:33:51.682Z,99322.51
2022-12-11T02:36:23.639Z,99318.27
2022-12-11T02:38:54.629Z,99317.34
2022-12-11T02:41:24.693Z,99318.13
2022-12-11T02:43:56.164Z,99321.98
2022-12-11T02:46:25.291Z,99323.42
2022-12-11T02:48:54.164Z,99322.59
2022-12-11T02:51:27.397Z,99316.55
2022-12-11T02:53:58.394Z,99313.93
2022-12-11T02:56:45.285Z,99325.96
2022-12-11T02:59:21.064Z,99325.90
2022-12-11T03:01:50.457Z,99323.27
2022-12-11T03:04:18.404Z,99322.25
2022-12-11T03:06:51.327Z,99316.33
2022-12-11T03:09:19.073Z,99318.52
2022-12-11T03:11:46.692Z,99314.20
2022-12-11T03:14:14.796Z,99314.65
2022-12-11T03:17:15.158Z,99312.02
2022-12-11T03:19:45.413Z,99306.89
2022-12-11T03:22:18.803Z,99308.05
2022-12-11T03:25:15.541Z,99304.58
2022-12-11T03:27:57.288Z,99300.07
2022-12-11T03:30:28.549Z,99293.11
2022-12-11T03:33:04.002Z,99291.21
2022-12-11T03:35:51.231Z,99287.48
2022-12-11T03:38:31.576Z,99290.84
2022-12-11T03:41:02.188Z,99285.60
2022-12-11T03:43:32.029Z,99284.07
2022-12-11T03:46:00.977Z,99278.45
2022-12-11T03:48:33.804Z,99278.52
2022-12-11T03:51:06.121Z,99275.94
2022-12-11T03:53:37.903Z,99277.34
2022-12-11T03:56:08.571Z,99283.73
2022-12-11T03:58:36.398Z,99283.96
2022-12-11T04:01:04.385Z,99291.25
2022-12-11T04:03:32.233Z,99282.51
2022-12-11T04:05:59.814Z,99283.55
2022-12-11T04:08:27.931Z,99276.69
2022-12-11T04:11:11.656Z,99269.52
2022-12-11T04:13:40.690Z,99268.27
2022-12-11T04:16:09.461Z,99267.55
2022-12-11T04:18:53.176Z,99265.73
2022-12-11T04:21:39.667Z,99272.95
2022-12-11T04:24:24.559Z,99274.13
2022-12-11T04:26:52.151Z,99271.90
2022-12-11T04:29:19.756Z,99270.63
2022-12-11T04:31:47.429Z,99270.31
2022-12-11T04:34:15.018Z,99274.08
2022-12-11T04:36:43.141Z,99273.29
2022-12-11T04:39:10.911Z,99281.27
2022-12-11T04:41:39.000Z,99281.34
2022-12-11T04:44:06.703Z,99281.60
2022-12-11T04:46:34.792Z,99272.23
2022-12-11T04:49:02.564Z,99275.08
2022-12-11T04:51:30.184Z,99276.72
2022-12-11T04:53:59.358Z,99272.36
2022-12-11T04:56:27.226Z,99273.44
2022-12-11T04:58:54.856Z,99270.89
2022-12-11T05:01:23.309Z,99269.89
2022-12-11T05:03:51.188Z,99267.82
2022-12-11T05:06:19.014Z,99269.66
2022-12-11T05:08:46.641Z,99269.77
2022-12-11T05:11:15.907Z,99274.58
2022-12-11T05:13:44.547Z,99276.84
2022-12-11T05:16:15.517Z,99277.32
2022-12-11T05:18:43.676Z,99281.81
2022-12-11T05:21:13.694Z,99277.30
2022-12-11T05:23:42.364Z,99279.09
2022-12-11T05:26:28.106Z,99276.77
2022-12-11T05:28:56.257Z,99274.94
2022-12-11T05:31:26.215Z,99277.35
2022-12-11T05:33:54.392Z,99276.70
2022-12-11T05:36:24.197Z,99282.33
2022-12-11T05:38:53.379Z,99276.90
2022-12-11T05:41:23.453Z,99271.26
2022-12-11T05:43:52.052Z,99270.38
2022-12-11T05:46:25.524Z,99265.89
2022-12-11T05:48:59.782Z,99267.59
2022-12-11T05:51:28.702Z,99267.30
2022-12-11T05:53:57.720Z,99264.86
2022-12-11T05:56:30.334Z,99262.12
2022-12-11T05:58:59.519Z,99262.35
2022-12-11T06:01:28.912Z,99258.02
2022-12-11T06:03:57.403Z,99252.84
2022-12-11T06:06:26.606Z,99251.02
2022-12-11T06:08:56.422Z,99245.32
2022-12-11T06:11:26.779Z,99243.97
2022-12-11T06:13:55.337Z,99241.58
2022-12-11T06:16:23.441Z,99248.75
2022-12-11T06:18:53.677Z,99247.45
2022-12-11T06:21:31.943Z,99244.92
2022-12-11T06:24:03.085Z,99241.48
2022-12-11T06:26:32.019Z,99234.96
2022-12-11T06:29:00.137Z,99236.79
2022-12-11T06:31:27.937Z,99233.55
2022-12-11T06:33:55.677Z,99227.55
2022-12-11T06:36:24.270Z,99227.89
2022-12-11T06:38:52.647Z,99229.65
2022-12-11T06:41:20.395Z,99235.10
2022-12-11T06:43:48.061Z,99236.14
2022-12-11T06:46:18.863Z,99233.39
2022-12-11T06:48:47.441Z,99229.95
2022-12-11T06:51:18.276Z,99226.52
2022-12-11T06:53:50.936Z,99227.88
2022-12-11T06:56:19.818Z,99229.06
2022-12-11T06:58:47.439Z,99223.49
2022-12-11T07:01:16.960Z,99228.90
2022-12-11T07:03:44.842Z,99228.58
2022-12-11T07:06:12.828Z,99224.64
2022-12-11T07:08:40.984Z,99227.65
2022-12-11T07:11:11.452Z,99226.11
2022-12-11T07:13:40.235Z,99235.52
2022-12-11T07:16:11.080Z,99230.10
2022-12-11T07:18:46.386Z,99226.08
2022-12-11T07:21:14.905Z,99227.11
2022-12-11T07:23:42.548Z,99224.88
2022-12-11T07:26:13.768Z,99225.04
2022-12-11T07:28:42.407Z,99225.37
2022-12-11T07:31:12.983Z,99224.61
2022-12-11T07:33:41.382Z,99223.01
2022-12-11T07:36:11.935Z,99223.10
2022-12-11T07:38:40.223Z,99223.27
2022-12-11T07:41:11.485Z,99223.41
2022-12-11T07:43:39.329Z,99224.89
2022-12-11T07:46:11.734Z,99226.87
2022-12-11T08:10:23.931Z,99243.79
2022-12-11T08:12:51.492Z,99244.94
2022-12-11T08:15:19.019Z,99252.89
2022-12-11T08:17:46.554Z,99246.38
2022-12-11T08:20:14.356Z,99249.51
2022-12-11T08:22:41.871Z,99246.35
2022-12-11T08:25:09.810Z,99240.92
2022-12-11T08:27:37.598Z,99237.60
2022-12-11T08:30:06.040Z,99239.22
2022-12-11T08:32:35.130Z,99237.38
2022-12-11T08:35:02.754Z,99235.96
2022-12-11T08:37:30.352Z,99229.67
2022-12-11T08:39:57.854Z,99224.46
2022-12-11T08:42:25.374Z,99220.40
2022-12-11T08:44:52.925Z,99214.27
2022-12-11T08:47:21.085Z,99216.03
2022-12-11T08:49:48.643Z,99216.13
2022-12-11T08:52:16.530Z,99215.64
2022-12-11T08:54:44.134Z,99214.98
2022-12-11T08:57:11.837Z,99213.47
2022-12-11T08:59:41.549Z,99211.13
2022-12-11T09:02:13.084Z,99211.05
2022-12-11T09:04:40.892Z,99203.13
2022-12-11T09:07:08.446Z,99203.45
2022-12-11T09:09:36.144Z,99196.91
2022-12-11T09:12:04.609Z,99195.52
2022-12-11T09:14:32.155Z,99192.86
2022-12-11T09:16:59.706Z,99187.17
2022-12-11T09:19:32.111Z,99181.45
2022-12-11T09:22:00.035Z,99178.02
2022-12-11T09:24:27.573Z,99172.94
2022-12-11T09:26:55.109Z,99170.98
2022-12-11T09:29:22.691Z,99163.97
2022-12-11T09:31:50.369Z,99164.62
2022-12-11T09:34:17.903Z,99157.40
2022-12-11T09:36:45.622Z,99155.52
2022-12-11T09:39:15.041Z,99151.83
2022-12-11T09:42:04.665Z,99153.80
2022-12-11T09:45:01.371Z,99154.09
2022-12-11T09:47:35.997Z,99154.74
2022-12-11T09:50:13.251Z,99148.79
2022-12-11T09:52:43.793Z,99139.20
2022-12-11T09:55:33.321Z,99134.55
2022-12-11T09:58:18.125Z,99130.19
2022-12-11T10:00:49.416Z,99129.55
2022-12-11T10:03:46.854Z,99128.45
2022-12-11T10:06:33.245Z,99126.78
2022-12-11T10:09:18.343Z,99130.39
2022-12-11T10:12:01.893Z,99124.69
2022-12-11T10:14:45.674Z,99124.88
2022-12-11T10:17:25.331Z,99121.86
2022-12-11T10:19:54.829Z,99119.19
2022-12-11T10:22:26.099Z,99115.67
2022-12-11T10:25:10.524Z,99116.30
2022-12-11T10:27:40.683Z,99117.92
2022-12-11T10:30:16.951Z,99118.04
2022-12-11T10:32:54.662Z,99117.26
2022-12-11T10:35:37.027Z,99114.34
2022-12-11T10:38:29.399Z,99106.02
2022-12-11T10:41:09.137Z,99102.72
2022-12-11T10:43:43.261Z,99104.29
2022-12-11T10:46:19.127Z,99099.40
2022-12-11T10:48:55.757Z,99092.66
2022-12-11T10:51:39.588Z,99096.80
2022-12-11T10:54:18.198Z,99096.23
2022-12-11T10:56:48.166Z,99095.92
2022-12-11T10:59:29.478Z,99080.23
2022-12-11T11:01:57.843Z,99071.65
2022-12-11T11:04:33.244Z,99060.86
2022-12-11T11:07:03.287Z,99060.31
2022-12-11T11:09:34.773Z,99061.42
2022-12-11T11:12:07.845Z,99057.73
2022-12-11T11:14:35.862Z,99062.67
2022-12-11T11:17:03.390Z,99060.62
2022-12-11T11:19:33.896Z,99053.86
2022-12-11T11:22:14.046Z,99050.90
2022-12-11T11:24:46.089Z,99051.16
2022-12-11T11:27:42.451Z,99048.73
2022-12-11T11:30:27.951Z,99043.19
2022-12-11T11:33:00.684Z,99041.16
2022-12-11T11:35:30.401Z,99041.02
2022-12-11T11:38:21.413Z,99038.77
2022-12-11T11:41:15.381Z,99041.86
2022-12-11T11:43:50.656Z,99037.19
2022-12-11T11:46:40.537Z,99033.42
2022-12-11T11:49:28.065Z,99031.14
2022-12-11T11:52:21.662Z,99028.62
2022-12-11T11:54:56.905Z,99024.33
2022-12-11T11:57:35.545Z,99020.10
2022-12-11T12:00:33.393Z,99020.08
2022-12-11T12:03:09.491Z,99016.62
2022-12-11T12:05:54.022Z,99016.48
2022-12-11T12:08:37.553Z,99012.08
2022-12-11T12:11:09.476Z,99004.22
2022-12-11T12:14:28.836Z,99004.23
2022-12-11T12:17:12.615Z,98995.46
2022-12-11T12:19:54.537Z,98990.43
2022-12-11T12:22:54.129Z,98986.34
2022-12-11T12:25:53.733Z,98983.01
2022-12-11T12:28:40.032Z,98981.30
2022-12-11T12:31:33.663Z,98981.06
2022-12-11T12:34:22.814Z,98976.16
2022-12-11T12:37:07.600Z,98976.02
2022-12-11T12:39:54.353Z,98971.11
2022-12-11T12:42:45.423Z,98972.52
2022-12-11T12:45:16.009Z,98969.23
2022-12-11T12:47:51.978Z,98969.54
2022-12-11T12:50:24.931Z,98966.98
2022-12-11T12:52:54.133Z,98969.33
2022-12-11T12:55:31.622Z,98966.15
2022-12-11T12:58:05.180Z,98962.39
2022-12-11T13:00:41.563Z,98960.73
2022-12-11T13:03:30.260Z,98957.30
2022-12-11T13:06:07.926Z,98953.77
2022-12-11T13:08:43.574Z,98953.05
2022-12-11T13:11:13.647Z,98947.73
2022-12-11T13:13:44.573Z,98948.52
2022-12-11T13:16:15.113Z,98950.41
2022-12-11T13:18:49.007Z,98948.73
2022-12-11T13:21:32.672Z,98945.97
2022-12-11T13:24:24.161Z,98943.27
2022-12-11T13:26:51.749Z,98943.51
2022-12-11T13:29:36.701Z,98942.61
2022-12-11T13:32:10.416Z,98942.36
2022-12-11T13:34:42.159Z,98933.59
2022-12-11T13:37:26.034Z,98929.84
2022-12-11T13:39:54.341Z,98930.42
2022-12-11T13:42:29.514Z,98934.41
2022-12-11T13:44:57.548Z,98932.08
2022-12-11T13:47:26.388Z,98932.48
2022-12-11T13:49:56.281Z,98930.27
2022-12-11T13:52:27.553Z,98923.50
2022-12-11T13:54:58.987Z,98922.69
2022-12-11T13:57:28.605Z,98925.83
2022-12-11T13:59:58.412Z,98921.54
2022-12-11T14:02:34.550Z,98916.29
2022-12-11T14:05:06.731Z,98917.91
2022-12-11T14:07:38.279Z,98914.40
2022-12-11T14:10:14.068Z,98915.65
2022-12-11T14:13:00.857Z,98912.41
2022-12-11T14:15:31.703Z,98916.23
2022-12-11T14:18:00.686Z,98911.73
2022-12-11T14:20:31.197Z,98915.90
2022-12-11T14:23:19.970Z,98909.58
2022-12-11T14:25:58.572Z,98909.85
2022-12-11T14:28:28.418Z,98910.02
2022-12-11T14:31:00.677Z,98914.11
2022-12-11T14:33:39.013Z,98910.48
2022-12-11T14:36:08.167Z,98912.85
2022-12-11T14:38:43.119Z,98920.27
2022-12-11T14:41:18.648Z,98917.89
2022-12-11T14:43:51.437Z,98922.48
2022-12-11T14:46:42.823Z,98920.98
2022-12-11T14:49:26.330Z,98918.73
2022-12-11T14:51:57.552Z,98909.94
2022-12-11T14:54:43.147Z,98903.42
2022-12-11T14:57:20.039Z,98903.23
2022-12-11T14:59:51.283Z,98899.50
2022-12-11T15:02:32.122Z,98900.15
2022-12-11T15:05:10.997Z,98898.66
2022-12-11T15:07:39.826Z,98897.09
2022-12-11T15:10:20.907Z,98899.86
2022-12-11T15:12:48.992Z,98901.41
2022-12-11T15:15:18.317Z,98894.84
2022-12-11T15:17:52.670Z,98889.08
2022-12-11T15:20:25.108Z,98883.20
2022-12-11T15:22:53.798Z,98888.10
2022-12-11T15:25:24.696Z,98887.16
2022-12-11T15:27:55.079Z,98889.05
2022-12-11T15:30:29.081Z,98890.60
2022-12-11T15:33:21.930Z,98885.52
2022-12-11T15:36:27.730Z,98888.63
2022-12-11T15:38:55.334Z,98887.49
2022-12-11T15:41:24.758Z,98884.76
2022-12-11T15:43:58.993Z,98888.92
2022-12-11T15:46:27.257Z,98889.63
2022-12-11T15:48:56.850Z,98887.04
2022-12-11T15:51:25.254Z,98891.40
2022-12-11T15:53:52.961Z,98898.21
2022-12-11T15:56:20.711Z,98895.83
2022-12-11T15:58:49.315Z,98893.64
2022-12-11T16:01:17.601Z,98896.95
2022-12-11T16:03:45.701Z,98892.86
2022-12-11T16:06:13.980Z,98886.45
2022-12-11T16:08:41.494Z,98888.48
2022-12-11T16:11:13.386Z,98888.29
2022-12-11T16:13:40.964Z,98891.27
2022-12-11T16:16:08.558Z,98887.81
2022-12-11T16:18:36.135Z,98889.57
2022-12-11T16:21:06.429Z,98887.05
2022-12-11T16:23:34.109Z,98889.90
2022-12-11T16:26:06.888Z,98883.08
2022-12-11T16:28:34.697Z,98881.02
2022-12-11T16:31:02.431Z,98882.80
2022-12-11T16:33:30.119Z,98881.98
2022-12-11T16:35:57.715Z,98876.75
2022-12-11T16:38:25.245Z,98881.23
2022-12-11T16:41:00.931Z,98877.09
2022-12-11T16:43:28.435Z,98874.38
2022-12-11T16:45:56.396Z,98870.51
2022-12-11T16:48:24.332Z,98867.15
2022-12-11T16:50:55.261Z,98870.44
2022-12-11T16:53:23.218Z,98870.75
2022-12-11T16:55:51.427Z,98868.38
2022-12-11T16:58:20.127Z,98875.56
2022-12-11T17:00:48.560Z,98875.73
2022-12-11T17:03:16.315Z,98874.84
2022-12-11T17:05:43.941Z,98880.67
2022-12-11T17:08:13.394Z,98879.83
2022-12-11T17:10:42.278Z,98878.07
2022-12-11T17:13:09.802Z,98874.73
2022-12-11T17:15:41.777Z,98875.55
2022-12-11T17:18:10.481Z,98873.41
2022-12-11T17:20:43.260Z,98873.58
2022-12-11T17:23:12.295Z,98872.52
2022-12-11T17:25:44.952Z,98866.36
2022-12-11T17:28:13.371Z,98857.60
2022-12-11T17:30:43.514Z,98855.48
2022-12-11T17:33:12.169Z,98854.20
2022-12-11T17:35:39.750Z,98844.86
2022-12-11T17:38:07.654Z,98842.86
2022-12-11T17:40:35.370Z,98842.02
2022-12-11T17:43:06.297Z,98837.96
2022-12-11T17:45:33.869Z,98834.08
2022-12-11T17:48:01.485Z,98831.85
2022-12-11T17:50:29.041Z,98831.71
2022-12-11T17:52:57.559Z,98831.06
2022-12-11T17:55:25.158Z,98826.75
2022-12-11T17:57:52.910Z,98826.51
2022-12-11T18:00:20.435Z,98830.27
2022-12-11T18:02:47.938Z,98826.23
2022-12-11T18:05:16.114Z,98823.75
2022-12-11T18:07:43.757Z,98815.86
2022-12-11T18:10:11.429Z,98819.30
2022-12-11T18:12:39.280Z,98821.09
2022-12-11T18:15:07.575Z,98819.83
2022-12-11T18:17:35.356Z,98818.80
2022-12-11T18:20:03.680Z,98816.36
2022-12-11T18:22:31.271Z,98815.58
2022-12-11T18:24:58.823Z,98811.95
2022-12-11T18:27:26.599Z,98810.23
2022-12-11T18:29:55.499Z,98809.00
2022-12-11T18:32:24.300Z,98806.10
2022-12-11T18:34:52.352Z,98808.20
2022-12-11T18:37:24.728Z,98806.13
2022-12-11T18:39:55.322Z,98803.88
2022-12-11T18:42:38.215Z,98804.74
2022-12-11T18:45:06.984Z,98803.14
2022-12-11T18:47:34.594Z,98802.69
2022-12-11T18:50:07.461Z,98806.28
2022-12-11T18:52:35.827Z,98805.58
2022-12-11T18:55:04.488Z,98809.95
2022-12-11T18:57:32.363Z,98808.02
2022-12-11T19:00:07.378Z,98807.23
2022-12-11T19:02:35.531Z,98808.12
2022-12-11T19:05:03.640Z,98804.81
2022-12-11T19:07:31.518Z,98807.79
2022-12-11T19:09:59.126Z,98808.37
2022-12-11T19:12:26.777Z,98804.98
2022-12-11T19:14:54.506Z,98804.48
2022-12-11T19:17:22.052Z,98805.83
2022-12-11T19:19:50.245Z,98810.70
2022-12-11T19:22:17.760Z,98809.39
2022-12-11T19:24:45.359Z,98802.84
2022-12-11T19:27:13.879Z,98799.98
2022-12-11T19:29:41.694Z,98800.20
2022-12-11T19:32:09.658Z,98800.33
2022-12-11T19:34:38.390Z,98800.76
2022-12-11T19:37:05.904Z,98804.20
2022-12-11T19:39:33.609Z,98801.90
2022-12-11T19:42:01.333Z,98794.52
2022-12-11T19:44:28.864Z,98799.02
2022-12-11T19:46:56.818Z,98802.08
2022-12-11T19:49:24.478Z,98802.41
2022-12-11T19:51:52.002Z,98798.60
2022-12-11T19:54:19.748Z,98795.38
2022-12-11T19:56:47.600Z,98796.50
2022-12-11T19:59:16.721Z,98792.55
2022-12-11T20:01:47.837Z,98792.88
2022-12-11T20:04:17.626Z,98790.07
2022-12-11T20:06:46.711Z,98791.27
2022-12-11T20:09:14.772Z,98788.98
2022-12-11T20:11:44.382Z,98782.86
2022-12-11T20:14:22.806Z,98786.15
2022-12-11T20:17:10.976Z,98783.77
2022-12-11T20:19:40.081Z,98786.84
2022-12-11T20:22:09.167Z,98788.92
2022-12-11T20:24:37.507Z,98792.52
2022-12-11T20:27:05.252Z,98789.14
2022-12-11T20:29:32.842Z,98791.81
2022-12-11T20:32:00.688Z,98786.66
2022-12-11T20:34:28.307Z,98785.14
2022-12-11T20:36:56.360Z,98788.70
2022-12-11T20:39:25.286Z,98783.51
2022-12-11T20:41:52.816Z,98784.77
2022-12-11T20:44:20.656Z,98785.27
2022-12-11T20:46:48.190Z,98783.84
2022-12-11T20:49:16.464Z,98779.23
2022-12-11T20:51:44.012Z,98779.48
2022-12-11T20:54:11.904Z,98774.91
2022-12-11T20:56:39.561Z,98770.00
2022-12-11T20:59:07.112Z,98763.34
2022-12-11T21:01:34.914Z,98758.09
2022-12-11T21:04:02.972Z,98753.35
2022-12-11T21:06:33.309Z,98753.16
2022-12-11T21:09:05.026Z,98750.16
2022-12-11T21:11:32.649Z,98744.15
2022-12-11T21:14:00.270Z,98735.91
2022-12-11T21:16:28.774Z,98734.23
2022-12-11T21:18:57.452Z,98736.39
2022-12-11T21:21:26.525Z,98739.48
2022-12-11T21:23:54.610Z,98741.47
2022-12-11T21:26:22.185Z,98741.84
2022-12-11T21:28:50.609Z,98739.39
2022-12-11T21:31:19.650Z,98740.35
2022-12-11T21:33:47.913Z,98736.27
2022-12-11T21:36:16.584Z,98736.65
2022-12-11T21:38:45.087Z,98740.38
2022-12-11T21:41:15.821Z,98737.20
2022-12-11T21:44:14.537Z,98739.45
2022-12-11T21:46:33.181Z,98740.16
2022-12-11T21:49:01.049Z,98739.04
2022-12-11T21:51:37.721Z,98739.27
2022-12-11T21:54:07.496Z,98733.80
2022-12-11T21:56:35.029Z,98733.48
2022-12-11T21:59:02.615Z,98729.48
2022-12-11T22:01:34.907Z,98730.84
2022-12-11T22:04:04.837Z,98730.33
2022-12-11T22:06:32.979Z,98730.04
2022-12-11T22:09:00.736Z,98733.74
2022-12-11T22:11:31.156Z,98732.20
2022-12-11T22:13:59.266Z,98727.61
2022-12-11T22:16:27.624Z,98731.91
2022-12-11T22:18:55.162Z,98730.49
2022-12-11T22:21:22.983Z,98728.33
2022-12-11T22:23:50.724Z,98722.58
2022-12-11T22:26:21.357Z,98722.21
2022-12-11T22:28:50.303Z,98712.70
2022-12-11T22:31:21.228Z,98716.69
2022-12-11T22:33:50.667Z,98713.14
2022-12-11T22:36:18.882Z,98715.11
2022-12-11T22:38:47.229Z,98715.71
2022-12-11T22:41:22.647Z,98714.70
2022-12-11T22:43:50.871Z,98711.39
2022-12-11T22:46:20.563Z,98715.85
2022-12-11T22:48:48.102Z,98711.59
2022-12-11T22:51:16.145Z,98706.05
2022-12-11T22:53:43.716Z,98705.92
2022-12-11T22:56:12.775Z,98711.42
2022-12-11T22:58:40.868Z,98705.48
2022-12-11T23:01:14.630Z,98708.27
2022-12-11T23:03:42.371Z,98704.02
2022-12-11T23:06:12.548Z,98703.09
2022-12-11T23:08:41.538Z,98700.77
2022-12-11T23:11:15.329Z,98698.95
2022-12-11T23:13:43.554Z,98695.82
2022-12-11T23:16:12.192Z,98696.57
2022-12-11T23:18:39.986Z,98693.80
2022-12-11T23:21:08.440Z,98691.15
2022-12-11T23:23:36.339Z,98692.33
2022-12-11T23:26:05.970Z,98690.98
2022-12-11T23:28:34.011Z,98688.95
2022-12-11T23:31:02.011Z,98690.11
2022-12-11T23:33:29.588Z,98691.50
2022-12-11T23:35:58.108Z,98687.69
2022-12-11T23:38:26.345Z,98689.37
2022-12-11T23:40:54.651Z,98688.49
2022-12-11T23:43:22.428Z,98693.97
2022-12-11T23:45:50.075Z,98694.36
2022-12-11T23:48:18.393Z,98693.45
2022-12-11T23:50:46.590Z,98697.90
2022-12-11T23:53:14.141Z,98697.52
2022-12-11T23:55:44.013Z,98698.02
2022-12-11T23:58:11.815Z,98701.56
